Impacts METAR Board
IDs:

KMEM - Memphis Intl, TN, US

Updated at: 1300 UTC 21 Feb 2019
Potential Impact None Slight Moderate High
Time 21/01Z 21/02Z 21/03Z 21/04Z 21/05Z 21/06Z 21/07Z 21/08Z 21/09Z 21/10Z 21/11Z 21/12Z 21/13Z
Temp46 44 43 42 39 39 36 36 35 35 37 36 36
Dewpt41 42 40 40 37 37 36 35 35 35 36 36 35
Altim30.00 30.00 30.02 30.04 30.06 30.07 30.07 30.08 30.09 30.11 30.11 30.14 30.17
VIS10 10 10 10 10 10 9 10 7 9 8 5 5
CIG-- -- -- -- -- -- -- -- -- -- -- -- --
CoverFEWCLRFEWFEWSCTSCTSCTFEWCLRFEWSCTSCTFEW
FltCatVFRVFRVFRVFRVFRVFRVFRVFRVFRVFRVFRMVFRMVFR
WX----------------------BRBR
WDir200240240000320000503040
WSpd3 3 3 0 0 0 4 0 0 0 4 3 5
WGst-- -- -- -- -- -- -- -- -- -- -- -- --
Raw hourly METARs
KMEM 210054Z 20003KT 10SM FEW020 08/05 A3000 RMK AO2 SLP157 T00780050
KMEM 210154Z 24003KT 10SM CLR 07/06 A3000 RMK AO2 SLP160 T00670056
KMEM 210254Z 24003KT 10SM FEW250 06/04 A3002 RMK AO2 SLP166 T00610044 51014
KMEM 210354Z 00000KT 10SM FEW250 06/04 A3004 RMK AO2 SLP174 T00560044
KMEM 210454Z 00000KT 10SM SCT250 04/03 A3006 RMK AO2 SLP180 T00390028
KMEM 210554Z 00000KT 10SM SCT250 04/03 A3007 RMK AO2 SLP183 T00390028 10089 20033 401060033 51017
KMEM 210654Z 32004KT 9SM SCT250 02/02 A3007 RMK AO2 SLP184 T00220022
KMEM 210754Z 00000KT 10SM FEW250 02/02 A3008 RMK AO2 SLP187 T00220017
KMEM 210854Z 00000KT 7SM CLR 02/02 A3009 RMK AO2 SLP189 T00170017 53005
KMEM 210954Z 00000KT 9SM FEW050 02/02 A3011 RMK AO2 SLP197 I1000 T00170017
KMEM 211054Z 05004KT 8SM SCT200 03/02 A3011 RMK AO2 SLP197 T00280022
KMEM 211154Z COR 03003KT 5SM BR SCT250 02/02 A3014 RMK AO2 SLP207 70004 T00220022 10050 20006 53018
KMEM 211254Z 04005KT 5SM BR FEW150 FEW250 02/02 A3017 RMK AO2 SLP216 T00220017



Page loaded:  13:28 UTC  |   05:28 AM Pacific  |   06:28 AM Mountain  |   07:28 AM Central  |   08:28 AM Eastern

 

ADVISORIES

FORECASTS

FORECASTS

OBSERVATIONS

USER TOOLS

ABOUT US